sensor_id;sensor_type;location;lat;lon;timestamp;pressure;altitude;pressure_sealevel;temperature;humidity
38880;BME280;25887;30.194;-97.880;2023-04-22T00:00:01;98165.81;;;27.80;35.67
38880;BME280;25887;30.194;-97.880;2023-04-22T00:02:29;98153.91;;;27.74;35.78
38880;BME280;25887;30.194;-97.880;2023-04-22T00:04:55;98169.16;;;27.70;36.18
38880;BME280;25887;30.194;-97.880;2023-04-22T00:07:22;98165.97;;;27.65;36.20
38880;BME280;25887;30.194;-97.880;2023-04-22T00:09:48;98171.69;;;27.59;35.65
38880;BME280;25887;30.194;-97.880;2023-04-22T00:12:14;98174.63;;;27.55;36.07
38880;BME280;25887;30.194;-97.880;2023-04-22T00:14:40;98168.88;;;27.49;35.84
38880;BME280;25887;30.194;-97.880;2023-04-22T00:17:06;98179.63;;;27.46;36.13
38880;BME280;25887;30.194;-97.880;2023-04-22T00:19:33;98173.75;;;27.43;36.24
38880;BME280;25887;30.194;-97.880;2023-04-22T00:21:59;98172.38;;;27.37;36.19
38880;BME280;25887;30.194;-97.880;2023-04-22T00:24:25;98168.50;;;27.30;35.72
38880;BME280;25887;30.194;-97.880;2023-04-22T00:26:52;98178.44;;;27.27;36.21
38880;BME280;25887;30.194;-97.880;2023-04-22T00:29:18;98176.22;;;27.20;35.72
38880;BME280;25887;30.194;-97.880;2023-04-22T00:31:44;98180.06;;;27.16;36.18
38880;BME280;25887;30.194;-97.880;2023-04-22T00:34:10;98173.41;;;27.11;35.91
38880;BME280;25887;30.194;-97.880;2023-04-22T00:36:36;98185.22;;;27.05;36.05
38880;BME280;25887;30.194;-97.880;2023-04-22T00:39:02;98186.38;;;27.01;35.77
38880;BME280;25887;30.194;-97.880;2023-04-22T00:41:29;98182.34;;;26.96;36.23
38880;BME280;25887;30.194;-97.880;2023-04-22T00:43:56;98183.44;;;26.93;36.22
38880;BME280;25887;30.194;-97.880;2023-04-22T00:46:23;98188.88;;;26.90;36.04
38880;BME280;25887;30.194;-97.880;2023-04-22T00:48:50;98193.56;;;26.86;36.14
38880;BME280;25887;30.194;-97.880;2023-04-22T00:51:17;98188.59;;;26.82;35.96
38880;BME280;25887;30.194;-97.880;2023-04-22T00:53:43;98183.53;;;26.79;35.92
38880;BME280;25887;30.194;-97.880;2023-04-22T00:56:10;98182.16;;;26.73;36.03
38880;BME280;25887;30.194;-97.880;2023-04-22T00:58:37;98185.09;;;26.69;36.29
38880;BME280;25887;30.194;-97.880;2023-04-22T01:01:03;98189.75;;;26.65;36.12
38880;BME280;25887;30.194;-97.880;2023-04-22T01:03:30;98185.72;;;26.59;36.13
38880;BME280;25887;30.194;-97.880;2023-04-22T01:05:57;98179.09;;;26.54;36.34
38880;BME280;25887;30.194;-97.880;2023-04-22T01:08:27;98197.75;;;26.51;36.25
38880;BME280;25887;30.194;-97.880;2023-04-22T01:10:55;98193.72;;;26.45;36.24
38880;BME280;25887;30.194;-97.880;2023-04-22T01:13:22;98191.41;;;26.41;36.82
38880;BME280;25887;30.194;-97.880;2023-04-22T01:15:50;98199.59;;;26.36;36.80
38880;BME280;25887;30.194;-97.880;2023-04-22T01:18:16;98198.13;;;26.32;36.95
38880;BME280;25887;30.194;-97.880;2023-04-22T01:20:43;98190.63;;;26.26;36.87
38880;BME280;25887;30.194;-97.880;2023-04-22T01:23:20;98190.91;;;26.21;36.88
38880;BME280;25887;30.194;-97.880;2023-04-22T01:25:48;98200.16;;;26.14;37.20
38880;BME280;25887;30.194;-97.880;2023-04-22T01:28:16;98191.84;;;26.07;37.31
38880;BME280;25887;30.194;-97.880;2023-04-22T01:30:42;98192.25;;;26.01;37.21
38880;BME280;25887;30.194;-97.880;2023-04-22T01:33:10;98191.69;;;25.96;37.06
38880;BME280;25887;30.194;-97.880;2023-04-22T01:35:37;98195.56;;;25.91;37.54
38880;BME280;25887;30.194;-97.880;2023-04-22T01:38:04;98207.38;;;25.85;37.68
38880;BME280;25887;30.194;-97.880;2023-04-22T01:40:31;98207.75;;;25.79;37.68
38880;BME280;25887;30.194;-97.880;2023-04-22T01:42:59;98216.03;;;25.73;37.79
38880;BME280;25887;30.194;-97.880;2023-04-22T01:45:26;98219.13;;;25.65;37.75
38880;BME280;25887;30.194;-97.880;2023-04-22T01:47:52;98216.97;;;25.58;38.03
38880;BME280;25887;30.194;-97.880;2023-04-22T01:50:19;98223.47;;;25.52;38.08
38880;BME280;25887;30.194;-97.880;2023-04-22T01:52:46;98227.63;;;25.42;37.89
38880;BME280;25887;30.194;-97.880;2023-04-22T01:55:12;98230.75;;;25.34;38.25
38880;BME280;25887;30.194;-97.880;2023-04-22T01:57:38;98236.38;;;25.28;38.09
38880;BME280;25887;30.194;-97.880;2023-04-22T02:00:05;98236.84;;;25.20;38.34
38880;BME280;25887;30.194;-97.880;2023-04-22T02:02:33;98243.25;;;25.16;38.33
38880;BME280;25887;30.194;-97.880;2023-04-22T02:04:59;98249.72;;;25.11;38.42
38880;BME280;25887;30.194;-97.880;2023-04-22T02:07:25;98260.59;;;25.05;38.55
38880;BME280;25887;30.194;-97.880;2023-04-22T02:09:52;98260.03;;;24.99;38.62
38880;BME280;25887;30.194;-97.880;2023-04-22T02:12:18;98265.75;;;24.92;38.71
38880;BME280;25887;30.194;-97.880;2023-04-22T02:14:45;98275.56;;;24.88;38.77
38880;BME280;25887;30.194;-97.880;2023-04-22T02:17:11;98267.31;;;24.80;39.14
38880;BME280;25887;30.194;-97.880;2023-04-22T02:19:37;98271.06;;;24.76;38.94
38880;BME280;25887;30.194;-97.880;2023-04-22T02:22:03;98276.69;;;24.70;39.42
38880;BME280;25887;30.194;-97.880;2023-04-22T02:24:29;98284.81;;;24.65;39.32
38880;BME280;25887;30.194;-97.880;2023-04-22T02:26:56;98280.78;;;24.60;39.51
38880;BME280;25887;30.194;-97.880;2023-04-22T02:29:22;98288.09;;;24.55;39.61
38880;BME280;25887;30.194;-97.880;2023-04-22T02:31:49;98288.34;;;24.50;39.63
38880;BME280;25887;30.194;-97.880;2023-04-22T02:34:15;98293.78;;;24.47;39.70
38880;BME280;25887;30.194;-97.880;2023-04-22T02:36:41;98299.22;;;24.44;39.85
38880;BME280;25887;30.194;-97.880;2023-04-22T02:39:07;98299.38;;;24.41;40.02
38880;BME280;25887;30.194;-97.880;2023-04-22T02:41:33;98292.63;;;24.37;40.20
38880;BME280;25887;30.194;-97.880;2023-04-22T02:43:59;98297.19;;;24.33;40.09
38880;BME280;25887;30.194;-97.880;2023-04-22T02:46:26;98306.16;;;24.29;40.26
38880;BME280;25887;30.194;-97.880;2023-04-22T02:48:52;98310.63;;;24.27;40.47
38880;BME280;25887;30.194;-97.880;2023-04-22T02:51:19;98301.34;;;24.22;40.60
38880;BME280;25887;30.194;-97.880;2023-04-22T02:53:46;98318.09;;;24.19;40.71
38880;BME280;25887;30.194;-97.880;2023-04-22T02:56:12;98319.22;;;24.15;40.80
38880;BME280;25887;30.194;-97.880;2023-04-22T02:58:38;98317.78;;;24.09;40.80
38880;BME280;25887;30.194;-97.880;2023-04-22T03:01:04;98329.38;;;24.05;40.84
38880;BME280;25887;30.194;-97.880;2023-04-22T03:03:31;98329.63;;;24.01;41.12
38880;BME280;25887;30.194;-97.880;2023-04-22T03:05:57;98327.25;;;23.96;41.04
38880;BME280;25887;30.194;-97.880;2023-04-22T03:08:24;98335.47;;;23.90;41.16
38880;BME280;25887;30.194;-97.880;2023-04-22T03:10:52;98337.41;;;23.86;41.35
38880;BME280;25887;30.194;-97.880;2023-04-22T03:13:18;98337.59;;;23.83;41.19
38880;BME280;25887;30.194;-97.880;2023-04-22T03:15:44;98336.88;;;23.80;41.39
38880;BME280;25887;30.194;-97.880;2023-04-22T03:18:10;98348.50;;;23.76;41.62
38880;BME280;25887;30.194;-97.880;2023-04-22T03:20:37;98358.28;;;23.72;41.87
38880;BME280;25887;30.194;-97.880;2023-04-22T03:23:03;98353.41;;;23.66;41.52
38880;BME280;25887;30.194;-97.880;2023-04-22T03:25:29;98362.44;;;23.60;41.61
38880;BME280;25887;30.194;-97.880;2023-04-22T03:27:55;98358.19;;;23.58;41.84
38880;BME280;25887;30.194;-97.880;2023-04-22T03:30:21;98365.50;;;23.51;41.95
38880;BME280;25887;30.194;-97.880;2023-04-22T03:32:48;98371.00;;;23.47;41.89
38880;BME280;25887;30.194;-97.880;2023-04-22T03:35:14;98373.78;;;23.44;42.27
38880;BME280;25887;30.194;-97.880;2023-04-22T03:37:40;98365.31;;;23.39;41.93
38880;BME280;25887;30.194;-97.880;2023-04-22T03:40:07;98375.16;;;23.33;42.41
38880;BME280;25887;30.194;-97.880;2023-04-22T03:42:34;98367.66;;;23.27;42.44
38880;BME280;25887;30.194;-97.880;2023-04-22T03:45:00;98363.47;;;23.23;42.34
38880;BME280;25887;30.194;-97.880;2023-04-22T03:47:26;98366.41;;;23.17;42.65
38880;BME280;25887;30.194;-97.880;2023-04-22T03:49:52;98365.81;;;23.12;42.56
38880;BME280;25887;30.194;-97.880;2023-04-22T03:52:18;98360.97;;;23.04;42.68
38880;BME280;25887;30.194;-97.880;2023-04-22T03:54:45;98362.09;;;22.99;42.84
38880;BME280;25887;30.194;-97.880;2023-04-22T03:57:11;98371.97;;;22.94;42.73
38880;BME280;25887;30.194;-97.880;2023-04-22T03:59:37;98379.28;;;22.87;42.79
38880;BME280;25887;30.194;-97.880;2023-04-22T04:02:03;98371.75;;;22.79;42.83
38880;BME280;25887;30.194;-97.880;2023-04-22T04:04:32;98372.84;;;22.75;43.15
38880;BME280;25887;30.194;-97.880;2023-04-22T04:06:59;98374.06;;;22.68;43.15
38880;BME280;25887;30.194;-97.880;2023-04-22T04:09:26;98372.59;;;22.63;43.34
38880;BME280;25887;30.194;-97.880;2023-04-22T04:11:52;98378.13;;;22.57;43.06
38880;BME280;25887;30.194;-97.880;2023-04-22T04:14:19;98385.31;;;22.53;43.48
38880;BME280;25887;30.194;-97.880;2023-04-22T04:16:45;98382.84;;;22.50;43.32
38880;BME280;25887;30.194;-97.880;2023-04-22T04:19:11;98379.59;;;22.45;43.24
38880;BME280;25887;30.194;-97.880;2023-04-22T04:21:37;98388.50;;;22.41;43.74
38880;BME280;25887;30.194;-97.880;2023-04-22T04:24:05;98384.41;;;22.35;43.79
38880;BME280;25887;30.194;-97.880;2023-04-22T04:26:31;98383.69;;;22.32;43.76
38880;BME280;25887;30.194;-97.880;2023-04-22T04:28:59;98389.09;;;22.29;43.90
38880;BME280;25887;30.194;-97.880;2023-04-22T04:31:28;98388.44;;;22.23;43.89
38880;BME280;25887;30.194;-97.880;2023-04-22T04:33:54;98396.47;;;22.20;43.63
38880;BME280;25887;30.194;-97.880;2023-04-22T04:36:22;98400.13;;;22.16;44.04
38880;BME280;25887;30.194;-97.880;2023-04-22T04:38:54;98400.34;;;22.12;43.83
38880;BME280;25887;30.194;-97.880;2023-04-22T04:41:21;98400.53;;;22.07;44.04
38880;BME280;25887;30.194;-97.880;2023-04-22T04:43:48;98406.84;;;22.03;43.90
38880;BME280;25887;30.194;-97.880;2023-04-22T04:46:15;98398.34;;;21.98;44.04
38880;BME280;25887;30.194;-97.880;2023-04-22T04:48:41;98399.25;;;21.97;44.39
38880;BME280;25887;30.194;-97.880;2023-04-22T04:51:14;98396.72;;;21.95;44.02
38880;BME280;25887;30.194;-97.880;2023-04-22T04:53:40;98397.84;;;21.90;44.29
38880;BME280;25887;30.194;-97.880;2023-04-22T04:56:06;98404.00;;;21.89;44.50
38880;BME280;25887;30.194;-97.880;2023-04-22T04:58:33;98408.44;;;21.87;44.23
38880;BME280;25887;30.194;-97.880;2023-04-22T05:00:59;98413.81;;;21.84;44.56
38880;BME280;25887;30.194;-97.880;2023-04-22T05:03:25;98413.94;;;21.81;44.43
38880;BME280;25887;30.194;-97.880;2023-04-22T05:05:51;98413.16;;;21.79;44.50
38880;BME280;25887;30.194;-97.880;2023-04-22T05:08:18;98407.16;;;21.77;44.57
38880;BME280;25887;30.194;-97.880;2023-04-22T05:10:44;98409.91;;;21.74;44.46
38880;BME280;25887;30.194;-97.880;2023-04-22T05:13:10;98414.22;;;21.75;44.42
38880;BME280;25887;30.194;-97.880;2023-04-22T05:15:36;98417.03;;;21.70;44.78
38880;BME280;25887;30.194;-97.880;2023-04-22T05:18:03;98405.03;;;21.66;44.80
38880;BME280;25887;30.194;-97.880;2023-04-22T05:20:29;98412.94;;;21.64;44.56
38880;BME280;25887;30.194;-97.880;2023-04-22T05:22:55;98408.69;;;21.62;44.67
38880;BME280;25887;30.194;-97.880;2023-04-22T05:25:22;98413.97;;;21.60;44.72
38880;BME280;25887;30.194;-97.880;2023-04-22T05:27:48;98424.44;;;21.60;44.87
38880;BME280;25887;30.194;-97.880;2023-04-22T05:30:14;98415.81;;;21.58;45.00
38880;BME280;25887;30.194;-97.880;2023-04-22T05:32:40;98417.59;;;21.58;45.00
38880;BME280;25887;30.194;-97.880;2023-04-22T05:35:09;98416.84;;;21.54;45.09
38880;BME280;25887;30.194;-97.880;2023-04-22T05:37:35;98412.63;;;21.52;44.91
38880;BME280;25887;30.194;-97.880;2023-04-22T05:40:01;98407.53;;;21.49;44.93
38880;BME280;25887;30.194;-97.880;2023-04-22T05:42:27;98407.56;;;21.47;45.52
38880;BME280;25887;30.194;-97.880;2023-04-22T05:44:54;98401.56;;;21.45;45.10
38880;BME280;25887;30.194;-97.880;2023-04-22T05:47:20;98394.66;;;21.44;45.02
38880;BME280;25887;30.194;-97.880;2023-04-22T05:49:46;98396.50;;;21.42;45.43
38880;BME280;25887;30.194;-97.880;2023-04-22T05:52:12;98406.94;;;21.42;45.37
38880;BME280;25887;30.194;-97.880;2023-04-22T05:54:38;98402.66;;;21.41;45.53
38880;BME280;25887;30.194;-97.880;2023-04-22T05:57:04;98398.44;;;21.37;45.61
38880;BME280;25887;30.194;-97.880;2023-04-22T05:59:31;98392.38;;;21.36;45.78
38880;BME280;25887;30.194;-97.880;2023-04-22T06:01:57;98390.75;;;21.34;45.85
38880;BME280;25887;30.194;-97.880;2023-04-22T06:04:23;98390.03;;;21.30;45.90
38880;BME280;25887;30.194;-97.880;2023-04-22T06:06:49;98392.72;;;21.29;45.96
38880;BME280;25887;30.194;-97.880;2023-04-22T06:09:19;98392.78;;;21.27;45.78
38880;BME280;25887;30.194;-97.880;2023-04-22T06:11:47;98395.44;;;21.26;45.80
38880;BME280;25887;30.194;-97.880;2023-04-22T06:14:14;98395.53;;;21.23;46.07
38880;BME280;25887;30.194;-97.880;2023-04-22T06:16:40;98395.63;;;21.21;46.12
38880;BME280;25887;30.194;-97.880;2023-04-22T06:19:06;98391.31;;;21.20;46.14
38880;BME280;25887;30.194;-97.880;2023-04-22T06:21:33;98402.75;;;21.18;46.08
38880;BME280;25887;30.194;-97.880;2023-04-22T06:24:01;98402.78;;;21.16;46.25
38880;BME280;25887;30.194;-97.880;2023-04-22T06:26:29;98401.94;;;21.15;46.41
38880;BME280;25887;30.194;-97.880;2023-04-22T06:28:56;98401.16;;;21.13;46.39
38880;BME280;25887;30.194;-97.880;2023-04-22T06:31:22;98392.56;;;21.11;46.59
38880;BME280;25887;30.194;-97.880;2023-04-22T06:33:49;98390.97;;;21.07;46.46
38880;BME280;25887;30.194;-97.880;2023-04-22T06:36:15;98387.59;;;21.05;46.45
38880;BME280;25887;30.194;-97.880;2023-04-22T06:38:41;98385.16;;;21.01;46.58
38880;BME280;25887;30.194;-97.880;2023-04-22T06:41:07;98385.28;;;20.98;46.67
38880;BME280;25887;30.194;-97.880;2023-04-22T06:43:33;98386.28;;;20.95;46.84
38880;BME280;25887;30.194;-97.880;2023-04-22T06:46:00;98385.53;;;20.92;46.91
38880;BME280;25887;30.194;-97.880;2023-04-22T06:48:26;98383.97;;;20.88;46.86
38880;BME280;25887;30.194;-97.880;2023-04-22T06:50:52;98374.56;;;20.83;47.08
38880;BME280;25887;30.194;-97.880;2023-04-22T06:53:18;98372.94;;;20.81;47.02
38880;BME280;25887;30.194;-97.880;2023-04-22T06:55:44;98367.84;;;20.78;46.97
38880;BME280;25887;30.194;-97.880;2023-04-22T06:58:11;98367.03;;;20.76;47.25
38880;BME280;25887;30.194;-97.880;2023-04-22T07:00:37;98356.75;;;20.73;47.38
38880;BME280;25887;30.194;-97.880;2023-04-22T07:03:03;98349.91;;;20.70;47.30
38880;BME280;25887;30.194;-97.880;2023-04-22T07:05:30;98343.88;;;20.68;47.27
38880;BME280;25887;30.194;-97.880;2023-04-22T07:07:56;98344.00;;;20.65;47.48
38880;BME280;25887;30.194;-97.880;2023-04-22T07:10:23;98337.09;;;20.64;47.35
38880;BME280;25887;30.194;-97.880;2023-04-22T07:12:49;98339.78;;;20.63;47.51
38880;BME280;25887;30.194;-97.880;2023-04-22T07:21:56;98328.00;;;20.52;47.65
38880;BME280;25887;30.194;-97.880;2023-04-22T07:24:23;98326.44;;;20.48;47.72
38880;BME280;25887;30.194;-97.880;2023-04-22T07:26:49;98323.00;;;20.46;47.80
38880;BME280;25887;30.194;-97.880;2023-04-22T07:29:15;98327.44;;;20.44;47.65
38880;BME280;25887;30.194;-97.880;2023-04-22T07:31:41;98319.66;;;20.43;47.88
38880;BME280;25887;30.194;-97.880;2023-04-22T07:34:07;98325.88;;;20.40;47.89
38880;BME280;25887;30.194;-97.880;2023-04-22T07:36:35;98326.78;;;20.39;47.91
38880;BME280;25887;30.194;-97.880;2023-04-22T07:39:02;98329.44;;;20.38;47.85
38880;BME280;25887;30.194;-97.880;2023-04-22T07:41:28;98327.72;;;20.37;48.05
38880;BME280;25887;30.194;-97.880;2023-04-22T07:43:54;98326.88;;;20.36;48.19
38880;BME280;25887;30.194;-97.880;2023-04-22T07:46:20;98330.41;;;20.35;48.17
38880;BME280;25887;30.194;-97.880;2023-04-22T07:48:47;98316.50;;;20.35;48.68
38880;BME280;25887;30.194;-97.880;2023-04-22T07:51:13;98315.66;;;20.34;48.32
38880;BME280;25887;30.194;-97.880;2023-04-22T07:53:39;98321.00;;;20.31;48.36
38880;BME280;25887;30.194;-97.880;2023-04-22T07:56:05;98330.66;;;20.29;48.65
38880;BME280;25887;30.194;-97.880;2023-04-22T08:01:54;98310.81;;;20.25;48.52
38880;BME280;25887;30.194;-97.880;2023-04-22T08:04:38;98318.59;;;20.26;48.51
38880;BME280;25887;30.194;-97.880;2023-04-22T08:10:26;98309.47;;;20.15;48.70
38880;BME280;25887;30.194;-97.880;2023-04-22T08:12:52;98306.22;;;20.10;48.82
38880;BME280;25887;30.194;-97.880;2023-04-22T08:15:18;98306.38;;;20.05;48.90
38880;BME280;25887;30.194;-97.880;2023-04-22T08:17:45;98311.84;;;19.99;48.67
38880;BME280;25887;30.194;-97.880;2023-04-22T08:20:11;98319.06;;;19.92;48.49
38880;BME280;25887;30.194;-97.880;2023-04-22T08:22:40;98319.38;;;19.85;48.72
38880;BME280;25887;30.194;-97.880;2023-04-22T08:25:08;98321.22;;;19.81;48.92
38880;BME280;25887;30.194;-97.880;2023-04-22T08:27:34;98322.28;;;19.77;48.93
38880;BME280;25887;30.194;-97.880;2023-04-22T08:30:04;98322.50;;;19.71;49.05
38880;BME280;25887;30.194;-97.880;2023-04-22T08:32:30;98329.53;;;19.69;49.02
38880;BME280;25887;30.194;-97.880;2023-04-22T08:34:57;98318.34;;;19.65;49.08
38880;BME280;25887;30.194;-97.880;2023-04-22T08:37:24;98323.69;;;19.62;49.21
38880;BME280;25887;30.194;-97.880;2023-04-22T08:39:50;98320.34;;;19.59;49.19
38880;BME280;25887;30.194;-97.880;2023-04-22T08:42:20;98316.06;;;19.56;49.34
38880;BME280;25887;30.194;-97.880;2023-04-22T08:44:48;98313.63;;;19.52;49.30
38880;BME280;25887;30.194;-97.880;2023-04-22T08:47:18;98312.75;;;19.51;49.32
38880;BME280;25887;30.194;-97.880;2023-04-22T08:49:45;98313.88;;;19.45;49.44
38880;BME280;25887;30.194;-97.880;2023-04-22T08:52:12;98319.22;;;19.41;49.46
38880;BME280;25887;30.194;-97.880;2023-04-22T08:54:40;98318.53;;;19.36;49.41
38880;BME280;25887;30.194;-97.880;2023-04-22T08:57:09;98318.72;;;19.31;49.51
38880;BME280;25887;30.194;-97.880;2023-04-22T08:59:37;98312.81;;;19.26;49.45
38880;BME280;25887;30.194;-97.880;2023-04-22T09:02:05;98321.69;;;19.20;49.49
38880;BME280;25887;30.194;-97.880;2023-04-22T09:04:33;98313.25;;;19.14;49.51
38880;BME280;25887;30.194;-97.880;2023-04-22T09:07:00;98312.66;;;19.06;49.54
38880;BME280;25887;30.194;-97.880;2023-04-22T09:09:28;98316.44;;;18.97;49.53
38880;BME280;25887;30.194;-97.880;2023-04-22T09:11:56;98309.81;;;18.88;49.50
38880;BME280;25887;30.194;-97.880;2023-04-22T09:14:23;98305.72;;;18.81;49.54
38880;BME280;25887;30.194;-97.880;2023-04-22T09:16:50;98308.53;;;18.75;49.54
38880;BME280;25887;30.194;-97.880;2023-04-22T09:19:16;98304.47;;;18.68;49.60
38880;BME280;25887;30.194;-97.880;2023-04-22T09:21:43;98315.03;;;18.62;49.82
38880;BME280;25887;30.194;-97.880;2023-04-22T09:24:10;98318.75;;;18.55;49.69
38880;BME280;25887;30.194;-97.880;2023-04-22T09:26:41;98311.91;;;18.51;49.88
38880;BME280;25887;30.194;-97.880;2023-04-22T09:29:12;98307.72;;;18.47;49.96
38880;BME280;25887;30.194;-97.880;2023-04-22T09:31:39;98309.75;;;18.38;50.13
38880;BME280;25887;30.194;-97.880;2023-04-22T09:34:05;98307.31;;;18.32;49.88
38880;BME280;25887;30.194;-97.880;2023-04-22T09:36:32;98306.63;;;18.27;50.03
38880;BME280;25887;30.194;-97.880;2023-04-22T09:39:06;98312.84;;;18.23;50.15
38880;BME280;25887;30.194;-97.880;2023-04-22T09:41:35;98312.97;;;18.19;49.70
38880;BME280;25887;30.194;-97.880;2023-04-22T09:44:03;98310.53;;;18.14;50.14
38880;BME280;25887;30.194;-97.880;2023-04-22T09:46:30;98309.69;;;18.12;50.19
38880;BME280;25887;30.194;-97.880;2023-04-22T09:49:00;98303.72;;;18.10;50.25
38880;BME280;25887;30.194;-97.880;2023-04-22T09:51:28;98302.06;;;18.07;50.24
38880;BME280;25887;30.194;-97.880;2023-04-22T09:54:04;98298.63;;;18.07;50.08
38880;BME280;25887;30.194;-97.880;2023-04-22T09:56:45;98289.97;;;18.06;50.14
38880;BME280;25887;30.194;-97.880;2023-04-22T09:59:23;98287.44;;;18.03;50.24
38880;BME280;25887;30.194;-97.880;2023-04-22T10:01:52;98286.78;;;17.97;50.58
38880;BME280;25887;30.194;-97.880;2023-04-22T10:04:18;98283.44;;;17.93;50.66
38880;BME280;25887;30.194;-97.880;2023-04-22T10:06:50;98274.03;;;17.89;50.40
38880;BME280;25887;30.194;-97.880;2023-04-22T10:09:18;98273.34;;;17.84;50.42
38880;BME280;25887;30.194;-97.880;2023-04-22T10:11:45;98278.63;;;17.81;50.58
38880;BME280;25887;30.194;-97.880;2023-04-22T10:14:12;98281.38;;;17.76;50.26
38880;BME280;25887;30.194;-97.880;2023-04-22T10:16:44;98284.16;;;17.70;50.39
38880;BME280;25887;30.194;-97.880;2023-04-22T10:19:15;98272.22;;;17.63;50.69
38880;BME280;25887;30.194;-97.880;2023-04-22T10:21:43;98271.53;;;17.57;50.76
38880;BME280;25887;30.194;-97.880;2023-04-22T10:24:19;98274.28;;;17.52;50.69
38880;BME280;25887;30.194;-97.880;2023-04-22T10:26:50;98270.06;;;17.48;50.83
38880;BME280;25887;30.194;-97.880;2023-04-22T10:29:19;98266.84;;;17.40;50.61
38880;BME280;25887;30.194;-97.880;2023-04-22T10:32:04;98267.69;;;17.40;50.88
38880;BME280;25887;30.194;-97.880;2023-04-22T10:34:32;98264.41;;;17.34;50.87
38880;BME280;25887;30.194;-97.880;2023-04-22T10:37:05;98261.91;;;17.31;51.04
38880;BME280;25887;30.194;-97.880;2023-04-22T10:39:32;98258.53;;;17.29;50.95
38880;BME280;25887;30.194;-97.880;2023-04-22T10:44:28;98255.03;;;17.30;51.12
38880;BME280;25887;30.194;-97.880;2023-04-22T10:46:56;98262.72;;;17.33;51.30
38880;BME280;25887;30.194;-97.880;2023-04-22T10:49:25;98267.00;;;17.34;51.41
38880;BME280;25887;30.194;-97.880;2023-04-22T10:51:53;98264.41;;;17.34;51.47
38880;BME280;25887;30.194;-97.880;2023-04-22T10:57:12;98256.63;;;17.34;51.35
38880;BME280;25887;30.194;-97.880;2023-04-22T10:59:50;98258.53;;;17.29;51.40
38880;BME280;25887;30.194;-97.880;2023-04-22T11:02:18;98264.63;;;17.27;51.43
38880;BME280;25887;30.194;-97.880;2023-04-22T11:04:45;98265.47;;;17.26;51.47
38880;BME280;25887;30.194;-97.880;2023-04-22T11:15:20;98258.69;;;17.22;51.71
38880;BME280;25887;30.194;-97.880;2023-04-22T11:17:51;98258.69;;;17.22;51.80
38880;BME280;25887;30.194;-97.880;2023-04-22T11:20:18;98257.84;;;17.22;51.75
38880;BME280;25887;30.194;-97.880;2023-04-22T11:22:54;98257.03;;;17.20;51.63
38880;BME280;25887;30.194;-97.880;2023-04-22T11:25:22;98258.88;;;17.16;51.64
38880;BME280;25887;30.194;-97.880;2023-04-22T11:27:49;98265.91;;;17.11;51.71
38880;BME280;25887;30.194;-97.880;2023-04-22T11:30:17;98263.31;;;17.11;51.76
38880;BME280;25887;30.194;-97.880;2023-04-22T11:32:46;98266.00;;;17.08;51.87
38880;BME280;25887;30.194;-97.880;2023-04-22T11:35:21;98266.00;;;17.08;52.06
38880;BME280;25887;30.194;-97.880;2023-04-22T11:37:48;98276.13;;;17.17;51.61
38880;BME280;25887;30.194;-97.880;2023-04-22T11:40:23;98272.00;;;17.10;51.71
38880;BME280;25887;30.194;-97.880;2023-04-22T11:42:52;98268.72;;;17.05;51.97
38880;BME280;25887;30.194;-97.880;2023-04-22T11:45:19;98272.16;;;17.06;51.76
38880;BME280;25887;30.194;-97.880;2023-04-22T11:47:47;98271.47;;;16.99;51.90
38880;BME280;25887;30.194;-97.880;2023-04-22T11:50:17;98273.28;;;16.95;51.96
38880;BME280;25887;30.194;-97.880;2023-04-22T11:55:34;98282.06;;;16.91;51.76
38880;BME280;25887;30.194;-97.880;2023-04-22T11:58:06;98283.88;;;16.88;52.02
38880;BME280;25887;30.194;-97.880;2023-04-22T12:00:34;98294.34;;;16.85;51.95
38880;BME280;25887;30.194;-97.880;2023-04-22T12:03:14;98294.44;;;16.82;52.13
38880;BME280;25887;30.194;-97.880;2023-04-22T12:06:07;98297.84;;;16.84;52.06
38880;BME280;25887;30.194;-97.880;2023-04-22T12:08:35;98285.06;;;16.76;52.02
38880;BME280;25887;30.194;-97.880;2023-04-22T12:11:07;98293.66;;;16.78;52.13
38880;BME280;25887;30.194;-97.880;2023-04-22T12:16:19;98305.72;;;16.79;52.07
38880;BME280;25887;30.194;-97.880;2023-04-22T12:18:49;98317.94;;;16.76;52.36
38880;BME280;25887;30.194;-97.880;2023-04-22T12:21:25;98318.75;;;16.78;52.26
38880;BME280;25887;30.194;-97.880;2023-04-22T12:23:59;98337.00;;;16.75;52.46
38880;BME280;25887;30.194;-97.880;2023-04-22T12:26:28;98336.16;;;16.73;52.33
38880;BME280;25887;30.194;-97.880;2023-04-22T12:28:56;98337.06;;;16.71;52.39
38880;BME280;25887;30.194;-97.880;2023-04-22T12:31:23;98343.97;;;16.71;52.43
38880;BME280;25887;30.194;-97.880;2023-04-22T12:33:49;98337.91;;;16.72;52.69
38880;BME280;25887;30.194;-97.880;2023-04-22T12:36:17;98340.47;;;16.74;52.74
38880;BME280;25887;30.194;-97.880;2023-04-22T12:38:45;98344.81;;;16.73;52.69
38880;BME280;25887;30.194;-97.880;2023-04-22T12:41:12;98344.78;;;16.75;52.64
38880;BME280;25887;30.194;-97.880;2023-04-22T12:43:38;98357.66;;;16.78;52.50
38880;BME280;25887;30.194;-97.880;2023-04-22T12:46:06;98361.94;;;16.79;52.73
38880;BME280;25887;30.194;-97.880;2023-04-22T12:48:32;98368.78;;;16.83;53.00
38880;BME280;25887;30.194;-97.880;2023-04-22T12:51:00;98365.25;;;16.85;52.99
38880;BME280;25887;30.194;-97.880;2023-04-22T12:53:27;98370.16;;;16.96;52.89
38880;BME280;25887;30.194;-97.880;2023-04-22T12:55:53;98363.69;;;17.12;52.88
38880;BME280;25887;30.194;-97.880;2023-04-22T12:58:19;98367.25;;;17.72;52.36
38880;BME280;25887;30.194;-97.880;2023-04-22T13:00:46;98374.34;;;18.24;51.73
38880;BME280;25887;30.194;-97.880;2023-04-22T13:03:12;98380.28;;;18.56;51.65
38880;BME280;25887;30.194;-97.880;2023-04-22T13:05:38;98387.81;;;18.91;51.50
38880;BME280;25887;30.194;-97.880;2023-04-22T13:08:05;98388.50;;;18.97;51.69
38880;BME280;25887;30.194;-97.880;2023-04-22T13:10:34;98384.91;;;19.26;51.71
38880;BME280;25887;30.194;-97.880;2023-04-22T13:13:00;98383.41;;;19.43;52.00